sensor_id;sensor_type;location;lat;lon;timestamp;pressure;altitude;pressure_sealevel;temperature;humidity
9690;BME280;4884;42.614;23.340;2022-08-07T00:00:20;159828.31;;;20.10;100.00
9690;BME280;4884;42.614;23.340;2022-08-07T00:02:46;159852.81;;;20.20;100.00
9690;BME280;4884;42.614;23.340;2022-08-07T00:05:11;159871.88;;;20.27;100.00
9690;BME280;4884;42.614;23.340;2022-08-07T00:07:37;159858.25;;;20.22;100.00
9690;BME280;4884;42.614;23.340;2022-08-07T00:10:03;159801.16;;;20.00;100.00
9690;BME280;4884;42.614;23.340;2022-08-07T00:12:29;159798.44;;;19.99;100.00
9690;BME280;4884;42.614;23.340;2022-08-07T00:14:56;159852.81;;;20.20;100.00
9690;BME280;4884;42.614;23.340;2022-08-07T00:17:21;159861.00;;;20.23;100.00
9690;BME280;4884;42.614;23.340;2022-08-07T00:19:46;159821.53;;;20.08;100.00
9690;BME280;4884;42.614;23.340;2022-08-07T00:22:12;159907.19;;;20.40;100.00
9690;BME280;4884;42.614;23.340;2022-08-07T00:24:38;159793.00;;;19.97;100.00
9690;BME280;4884;42.614;23.340;2022-08-07T00:27:04;159822.88;;;20.08;100.00
9690;BME280;4884;42.614;23.340;2022-08-07T00:29:29;159763.09;;;19.86;100.00
9690;BME280;4884;42.614;23.340;2022-08-07T00:31:55;159719.50;;;19.69;100.00
9690;BME280;4884;42.614;23.340;2022-08-07T00:34:24;159714.06;;;19.67;100.00
9690;BME280;4884;42.614;23.340;2022-08-07T00:36:50;159738.63;;;19.76;100.00
9690;BME280;4884;42.614;23.340;2022-08-07T00:39:15;159812.00;;;20.04;100.00
9690;BME280;4884;42.614;23.340;2022-08-07T00:41:50;159812.00;;;20.04;100.00
9690;BME280;4884;42.614;23.340;2022-08-07T00:44:16;159809.31;;;20.03;100.00
9690;BME280;4884;42.614;23.340;2022-08-07T00:46:42;159831.06;;;20.11;100.00
9690;BME280;4884;42.614;23.340;2022-08-07T00:49:07;159801.16;;;20.00;100.00
9690;BME280;4884;42.614;23.340;2022-08-07T00:51:34;159826.97;;;20.10;100.00
9690;BME280;4884;42.614;23.340;2022-08-07T00:54:00;159752.22;;;19.82;100.00
9690;BME280;4884;42.614;23.340;2022-08-07T00:56:26;159720.91;;;19.70;100.00
9690;BME280;4884;42.614;23.340;2022-08-07T00:58:53;159778.06;;;19.91;100.00
9690;BME280;4884;42.614;23.340;2022-08-07T01:01:19;159760.34;;;19.85;100.00
9690;BME280;4884;42.614;23.340;2022-08-07T01:03:45;159795.72;;;19.98;100.00
9690;BME280;4884;42.614;23.340;2022-08-07T01:06:11;159816.09;;;20.06;100.00
9690;BME280;4884;42.614;23.340;2022-08-07T01:08:36;159801.16;;;20.00;100.00
9690;BME280;4884;42.614;23.340;2022-08-07T01:11:02;159795.72;;;19.98;100.00
9690;BME280;4884;42.614;23.340;2022-08-07T01:13:27;159803.88;;;20.01;100.00
9690;BME280;4884;42.614;23.340;2022-08-07T01:15:53;159776.66;;;19.91;100.00
9690;BME280;4884;42.614;23.340;2022-08-07T01:18:21;159756.31;;;19.83;100.00
9690;BME280;4884;42.614;23.340;2022-08-07T01:21:00;159783.50;;;19.93;100.00
9690;BME280;4884;42.614;23.340;2022-08-07T01:23:28;159727.75;;;19.72;100.00
9690;BME280;4884;42.614;23.340;2022-08-07T01:25:53;159745.41;;;19.79;100.00
9690;BME280;4884;42.614;23.340;2022-08-07T01:28:19;159771.22;;;19.89;100.00
9690;BME280;4884;42.614;23.340;2022-08-07T01:30:46;159787.59;;;19.95;100.00
9690;BME280;4884;42.614;23.340;2022-08-07T01:33:13;159757.66;;;19.84;100.00
9690;BME280;4884;42.614;23.340;2022-08-07T01:35:39;159705.97;;;19.64;100.00
9690;BME280;4884;42.614;23.340;2022-08-07T01:38:05;159730.50;;;19.73;100.00
9690;BME280;4884;42.614;23.340;2022-08-07T01:40:32;159719.50;;;19.69;100.00
9690;BME280;4884;42.614;23.340;2022-08-07T01:42:58;159684.22;;;19.56;100.00
9690;BME280;4884;42.614;23.340;2022-08-07T01:45:24;159733.19;;;19.74;100.00
9690;BME280;4884;42.614;23.340;2022-08-07T01:47:51;159748.13;;;19.80;100.00
9690;BME280;4884;42.614;23.340;2022-08-07T01:50:16;159744.03;;;19.78;100.00
9690;BME280;4884;42.614;23.340;2022-08-07T01:52:43;159787.59;;;19.95;100.00
9690;BME280;4884;42.614;23.340;2022-08-07T01:55:09;159844.63;;;20.16;100.00
9690;BME280;4884;42.614;23.340;2022-08-07T01:57:38;159885.44;;;20.32;100.00
9690;BME280;4884;42.614;23.340;2022-08-07T02:00:07;159871.88;;;20.27;100.00
9690;BME280;4884;42.614;23.340;2022-08-07T02:02:50;159858.25;;;20.22;100.00
9690;BME280;4884;42.614;23.340;2022-08-07T02:05:24;159793.00;;;19.97;100.00
9690;BME280;4884;42.614;23.340;2022-08-07T02:07:52;159797.06;;;19.98;100.00
9690;BME280;4884;42.614;23.340;2022-08-07T02:10:22;159869.13;;;20.26;100.00
9690;BME280;4884;42.614;23.340;2022-08-07T02:12:50;159858.25;;;20.22;100.00
9690;BME280;4884;42.614;23.340;2022-08-07T02:15:22;159831.06;;;20.11;100.00
9690;BME280;4884;42.614;23.340;2022-08-07T02:17:50;159836.50;;;20.13;100.00
9690;BME280;4884;42.614;23.340;2022-08-07T02:20:17;159719.50;;;19.69;100.00
9690;BME280;4884;42.614;23.340;2022-08-07T02:22:43;159714.06;;;19.67;100.00
9690;BME280;4884;42.614;23.340;2022-08-07T02:25:10;159517.09;;;18.93;100.00
9690;BME280;4884;42.614;23.340;2022-08-07T02:27:38;88978.09;;;18.63;100.00
9690;BME280;4884;42.614;23.340;2022-08-07T02:30:05;29900.84;;;18.23;100.00
9690;BME280;4884;42.614;23.340;2022-08-07T02:32:32;39131.31;;;18.30;100.00
9690;BME280;4884;42.614;23.340;2022-08-07T02:34:58;14137.91;;;18.29;100.00
9690;BME280;4884;42.614;23.340;2022-08-07T02:37:25;392.69;;;17.98;100.00
9690;BME280;4884;42.614;23.340;2022-08-07T02:39:53;-3196.84;;;18.03;100.00
9690;BME280;4884;42.614;23.340;2022-08-07T02:42:21;-8084.03;;;17.64;100.00
9690;BME280;4884;42.614;23.340;2022-08-07T02:44:48;-11017.50;;;17.85;100.00
9690;BME280;4884;42.614;23.340;2022-08-07T02:47:15;-11019.06;;;17.99;100.00
9690;BME280;4884;42.614;23.340;2022-08-07T02:49:41;-11020.59;;;18.12;100.00
9690;BME280;4884;42.614;23.340;2022-08-07T02:52:09;-11019.78;;;18.05;100.00
9690;BME280;4884;42.614;23.340;2022-08-07T02:54:40;-11015.53;;;17.68;100.00
9690;BME280;4884;42.614;23.340;2022-08-07T02:57:07;-11017.97;;;17.89;100.00
9690;BME280;4884;42.614;23.340;2022-08-07T02:59:35;-11016.00;;;17.89;100.00
9690;BME280;4884;42.614;23.340;2022-08-07T03:02:01;-10369.56;;;18.32;100.00
9690;BME280;4884;42.614;23.340;2022-08-07T03:04:27;-7763.69;;;18.47;100.00
9690;BME280;4884;42.614;23.340;2022-08-07T03:06:53;-5154.03;;;18.27;100.00
9690;BME280;4884;42.614;23.340;2022-08-07T03:09:20;-4501.59;;;18.19;100.00
9690;BME280;4884;42.614;23.340;2022-08-07T03:11:46;-4827.97;;;18.32;100.00
9690;BME280;4884;42.614;23.340;2022-08-07T03:14:12;-3196.50;;;18.37;100.00
9690;BME280;4884;42.614;23.340;2022-08-07T03:16:39;395.75;;;18.44;100.00
9690;BME280;4884;42.614;23.340;2022-08-07T03:19:06;1051.34;;;18.71;100.00
9690;BME280;4884;42.614;23.340;2022-08-07T03:21:32;1050.78;;;18.64;100.00
9690;BME280;4884;42.614;23.340;2022-08-07T03:23:57;-1890.28;;;18.53;100.00
9690;BME280;4884;42.614;23.340;2022-08-07T03:26:25;-4828.22;;;18.48;100.00
9690;BME280;4884;42.614;23.340;2022-08-07T03:28:55;-7437.38;;;18.43;100.00
9690;BME280;4884;42.614;23.340;2022-08-07T03:31:21;-9717.59;;;18.28;100.00
9690;BME280;4884;42.614;23.340;2022-08-07T03:34:00;-1890.59;;;18.43;100.00
9690;BME280;4884;42.614;23.340;2022-08-07T03:36:27;-1236.44;;;18.69;100.00
9690;BME280;4884;42.614;23.340;2022-08-07T03:38:57;-1236.41;;;18.70;100.00
9690;BME280;4884;42.614;23.340;2022-08-07T03:41:23;-2543.06;;;18.69;100.00
9690;BME280;4884;42.614;23.340;2022-08-07T03:43:50;-5480.59;;;18.43;100.00
9690;BME280;4884;42.614;23.340;2022-08-07T03:46:16;-4175.63;;;18.59;100.00
9690;BME280;4884;42.614;23.340;2022-08-07T03:48:41;5304.72;;;18.79;100.00
9690;BME280;4884;42.614;23.340;2022-08-07T03:51:08;13825.13;;;18.82;100.00
9690;BME280;4884;42.614;23.340;2022-08-07T03:53:36;22035.06;;;18.82;100.00
9690;BME280;4884;42.614;23.340;2022-08-07T03:56:01;18422.91;;;18.89;100.00
9690;BME280;4884;42.614;23.340;2022-08-07T03:58:27;12515.81;;;18.92;100.00
9690;BME280;4884;42.614;23.340;2022-08-07T04:00:56;4323.97;;;18.87;100.00
9690;BME280;4884;42.614;23.340;2022-08-07T04:03:22;4654.00;;;19.08;100.00
9690;BME280;4884;42.614;23.340;2022-08-07T04:05:48;-2541.94;;;19.23;100.00
9690;BME280;4884;42.614;23.340;2022-08-07T04:08:14;-4829.28;;;19.15;100.00
9690;BME280;4884;42.614;23.340;2022-08-07T04:10:41;-7443.34;;;19.47;100.00
9690;BME280;4884;42.614;23.340;2022-08-07T04:13:10;2696.44;;;19.69;100.00
9690;BME280;4884;42.614;23.340;2022-08-07T04:15:37;12199.22;;;19.37;100.00
9690;BME280;4884;42.614;23.340;2022-08-07T04:18:02;11542.25;;;19.34;100.00
9690;BME280;4884;42.614;23.340;2022-08-07T04:20:28;9577.91;;;19.53;100.00
9690;BME280;4884;42.614;23.340;2022-08-07T04:22:54;10887.34;;;19.40;100.00
9690;BME280;4884;42.614;23.340;2022-08-07T04:25:22;11866.53;;;19.19;100.00
9690;BME280;4884;42.614;23.340;2022-08-07T04:27:48;17457.97;;;19.49;100.00
9690;BME280;4884;42.614;23.340;2022-08-07T04:30:13;13517.75;;;19.57;100.00
9690;BME280;4884;42.614;23.340;2022-08-07T04:32:39;6621.53;;;19.23;100.00
9690;BME280;4884;42.614;23.340;2022-08-07T04:35:06;-3849.22;;;19.20;100.00
9690;BME280;4884;42.614;23.340;2022-08-07T04:37:32;-11037.75;;;19.62;100.00
9690;BME280;4884;42.614;23.340;2022-08-07T04:39:59;-11033.19;;;19.39;100.00
9690;BME280;4884;42.614;23.340;2022-08-07T04:42:24;-11034.22;;;19.31;100.00
9690;BME280;4884;42.614;23.340;2022-08-07T04:44:54;-11035.88;;;19.46;100.00
9690;BME280;4884;42.614;23.340;2022-08-07T04:51:11;-11037.38;;;19.59;100.00
9690;BME280;4884;42.614;23.340;2022-08-07T04:53:51;-3849.22;;;19.88;100.00
9690;BME280;4884;42.614;23.340;2022-08-07T04:59:16;17162.38;;;20.48;100.00
9690;BME280;4884;42.614;23.340;2022-08-07T05:04:24;47285.50;;;21.10;100.00
9690;BME280;4884;42.614;23.340;2022-08-07T05:07:06;94114.59;;;21.52;100.00
9690;BME280;4884;42.614;23.340;2022-08-07T05:09:44;160301.84;;;21.89;100.00
9690;BME280;4884;42.614;23.340;2022-08-07T05:12:16;160304.59;;;21.90;100.00
9690;BME280;4884;42.614;23.340;2022-08-07T05:14:44;160427.16;;;22.36;100.00
9690;BME280;4884;42.614;23.340;2022-08-07T05:17:13;160454.38;;;22.46;100.00
9690;BME280;4884;42.614;23.340;2022-08-07T05:19:43;160491.13;;;22.60;100.00
9690;BME280;4884;42.614;23.340;2022-08-07T05:22:10;136226.38;;;22.44;100.00
9690;BME280;4884;42.614;23.340;2022-08-07T05:24:37;142019.59;;;22.46;100.00
9690;BME280;4884;42.614;23.340;2022-08-07T05:27:04;126358.84;;;22.37;100.00
9690;BME280;4884;42.614;23.340;2022-08-07T05:29:34;135482.69;;;22.15;100.00
9690;BME280;4884;42.614;23.340;2022-08-07T05:32:05;136198.59;;;22.31;100.00
9690;BME280;4884;42.614;23.340;2022-08-07T05:34:32;160489.78;;;22.60;100.00
9690;BME280;4884;42.614;23.340;2022-08-07T05:37:00;160489.78;;;22.60;100.00
9690;BME280;4884;42.614;23.340;2022-08-07T05:39:26;160465.25;;;22.50;100.00
9690;BME280;4884;42.614;23.340;2022-08-07T05:41:52;160413.50;;;22.31;100.00
9690;BME280;4884;42.614;23.340;2022-08-07T05:44:19;160409.47;;;22.29;100.00
9690;BME280;4884;42.614;23.340;2022-08-07T05:46:46;155234.66;;;22.21;100.00
9690;BME280;4884;42.614;23.340;2022-08-07T05:49:12;160511.56;;;22.68;100.00
9690;BME280;4884;42.614;23.340;2022-08-07T05:51:40;160547.00;;;22.81;100.00
9690;BME280;4884;42.614;23.340;2022-08-07T05:54:05;160525.22;;;22.73;100.00
9690;BME280;4884;42.614;23.340;2022-08-07T05:56:32;160574.22;;;22.91;100.00
9690;BME280;4884;42.614;23.340;2022-08-07T05:59:00;160574.22;;;22.91;100.00
9690;BME280;4884;42.614;23.340;2022-08-07T06:01:27;160668.25;;;23.27;100.00
9690;BME280;4884;42.614;23.340;2022-08-07T06:03:55;160669.63;;;23.27;100.00
9690;BME280;4884;42.614;23.340;2022-08-07T06:06:22;160602.91;;;23.02;100.00
9690;BME280;4884;42.614;23.340;2022-08-07T06:08:48;160683.25;;;23.32;100.00
9690;BME280;4884;42.614;23.340;2022-08-07T06:11:15;160691.47;;;23.36;100.00
9690;BME280;4884;42.614;23.340;2022-08-07T06:13:40;160623.34;;;23.10;100.00
9690;BME280;4884;42.614;23.340;2022-08-07T06:16:07;160841.38;;;23.92;100.00
9690;BME280;4884;42.614;23.340;2022-08-07T06:18:33;160904.06;;;24.16;100.00
9690;BME280;4884;42.614;23.340;2022-08-07T06:21:03;161112.75;;;24.94;100.00
9690;BME280;4884;42.614;23.340;2022-08-07T06:23:30;161111.38;;;24.94;100.00
9690;BME280;4884;42.614;23.340;2022-08-07T06:25:56;161250.59;;;25.46;100.00
9690;BME280;4884;42.614;23.340;2022-08-07T06:28:23;161452.56;;;26.22;100.00
9690;BME280;4884;42.614;23.340;2022-08-07T06:30:49;161460.78;;;26.25;100.00
9690;BME280;4884;42.614;23.340;2022-08-07T06:33:14;161564.59;;;26.64;100.00
9690;BME280;4884;42.614;23.340;2022-08-07T06:35:40;161668.31;;;27.03;100.00
9690;BME280;4884;42.614;23.340;2022-08-07T06:38:05;161665.63;;;27.02;100.00
9690;BME280;4884;42.614;23.340;2022-08-07T06:40:38;161811.81;;;27.57;92.69
9690;BME280;4884;42.614;23.340;2022-08-07T06:43:05;161910.22;;;27.94;80.83
9690;BME280;4884;42.614;23.340;2022-08-07T06:45:32;161964.84;;;28.14;90.04
9690;BME280;4884;42.614;23.340;2022-08-07T06:47:58;161974.44;;;28.18;85.90
9690;BME280;4884;42.614;23.340;2022-08-07T06:50:24;161985.38;;;28.22;87.40
9690;BME280;4884;42.614;23.340;2022-08-07T06:52:53;162045.47;;;28.44;81.21
9690;BME280;4884;42.614;23.340;2022-08-07T06:55:22;161862.31;;;27.76;88.43
9690;BME280;4884;42.614;23.340;2022-08-07T06:57:49;161966.22;;;28.15;85.60
9690;BME280;4884;42.614;23.340;2022-08-07T07:00:16;162113.84;;;28.70;80.16
9690;BME280;4884;42.614;23.340;2022-08-07T07:02:42;162012.69;;;28.32;82.29
9690;BME280;4884;42.614;23.340;2022-08-07T07:05:08;162004.47;;;28.29;81.20
9690;BME280;4884;42.614;23.340;2022-08-07T07:07:34;162015.44;;;28.33;84.57
9690;BME280;4884;42.614;23.340;2022-08-07T07:09:59;161996.28;;;28.26;89.43
9690;BME280;4884;42.614;23.340;2022-08-07T07:12:42;162153.53;;;28.85;84.42
9690;BME280;4884;42.614;23.340;2022-08-07T07:20:32;162280.69;;;29.33;78.60
9690;BME280;4884;42.614;23.340;2022-08-07T07:22:59;162247.91;;;29.20;82.79
9690;BME280;4884;42.614;23.340;2022-08-07T07:25:25;162265.66;;;29.27;84.41
9690;BME280;4884;42.614;23.340;2022-08-07T07:28:06;162269.78;;;29.29;85.99
9690;BME280;4884;42.614;23.340;2022-08-07T07:30:41;162205.47;;;29.05;81.20
9690;BME280;4884;42.614;23.340;2022-08-07T07:33:09;162208.19;;;29.06;82.81
9690;BME280;4884;42.614;23.340;2022-08-07T07:35:37;162228.75;;;29.13;79.51
9690;BME280;4884;42.614;23.340;2022-08-07T07:38:05;162223.22;;;29.11;81.48
9690;BME280;4884;42.614;23.340;2022-08-07T07:40:32;162056.41;;;28.49;78.86
9690;BME280;4884;42.614;23.340;2022-08-07T07:42:59;161944.34;;;28.07;82.38
9690;BME280;4884;42.614;23.340;2022-08-07T07:45:29;162206.81;;;29.05;83.41
9690;BME280;4884;42.614;23.340;2022-08-07T07:47:55;161784.50;;;27.47;90.02
9690;BME280;4884;42.614;23.340;2022-08-07T07:50:22;161725.72;;;27.24;99.00
9690;BME280;4884;42.614;23.340;2022-08-07T07:52:48;162053.69;;;28.48;90.20
9690;BME280;4884;42.614;23.340;2022-08-07T07:55:17;162187.66;;;28.98;77.94
9690;BME280;4884;42.614;23.340;2022-08-07T07:57:45;162171.28;;;28.92;85.19
9690;BME280;4884;42.614;23.340;2022-08-07T08:00:13;162273.88;;;29.30;86.47
9690;BME280;4884;42.614;23.340;2022-08-07T08:02:39;162291.63;;;29.37;82.43
9690;BME280;4884;42.614;23.340;2022-08-07T08:05:08;162163.09;;;28.89;79.56
9690;BME280;4884;42.614;23.340;2022-08-07T08:07:35;162111.16;;;28.69;82.51
9690;BME280;4884;42.614;23.340;2022-08-07T08:10:03;162362.78;;;29.64;78.46
9690;BME280;4884;42.614;23.340;2022-08-07T08:12:29;162265.66;;;29.27;74.50
9690;BME280;4884;42.614;23.340;2022-08-07T08:14:55;162485.91;;;30.10;69.52
9690;BME280;4884;42.614;23.340;2022-08-07T08:17:22;162433.91;;;29.90;70.48
9690;BME280;4884;42.614;23.340;2022-08-07T08:19:50;162064.66;;;28.52;78.09
9690;BME280;4884;42.614;23.340;2022-08-07T08:22:18;162220.53;;;29.10;78.53
9690;BME280;4884;42.614;23.340;2022-08-07T08:25:03;162432.56;;;29.90;75.29
9690;BME280;4884;42.614;23.340;2022-08-07T08:27:52;162455.84;;;29.98;68.82
9690;BME280;4884;42.614;23.340;2022-08-07T08:30:18;162535.19;;;30.28;69.75
9690;BME280;4884;42.614;23.340;2022-08-07T08:32:51;162678.88;;;30.82;62.43
9690;BME280;4884;42.614;23.340;2022-08-07T08:35:21;162752.84;;;31.10;61.34
9690;BME280;4884;42.614;23.340;2022-08-07T08:37:48;162644.69;;;30.69;63.93
9690;BME280;4884;42.614;23.340;2022-08-07T08:40:31;162332.69;;;29.52;67.78
9690;BME280;4884;42.614;23.340;2022-08-07T08:45:52;162730.94;;;31.02;58.36
9690;BME280;4884;42.614;23.340;2022-08-07T08:52:05;162763.78;;;31.14;56.84
9690;BME280;4884;42.614;23.340;2022-08-07T08:54:37;162518.78;;;30.22;63.90
9690;BME280;4884;42.614;23.340;2022-08-07T08:57:14;162625.53;;;30.62;57.65
9690;BME280;4884;42.614;23.340;2022-08-07T09:00:18;162362.78;;;29.64;59.32
9690;BME280;4884;42.614;23.340;2022-08-07T09:02:46;162417.50;;;29.84;59.56
9690;BME280;4884;42.614;23.340;2022-08-07T09:05:23;162153.53;;;28.85;66.52
9690;BME280;4884;42.614;23.340;2022-08-07T09:07:58;162443.50;;;29.94;61.91
9690;BME280;4884;42.614;23.340;2022-08-07T09:10:36;162165.81;;;28.90;67.39
9690;BME280;4884;42.614;23.340;2022-08-07T09:15:57;161888.28;;;27.85;75.38
9690;BME280;4884;42.614;23.340;2022-08-07T09:27:43;162532.41;;;30.27;62.08
9690;BME280;4884;42.614;23.340;2022-08-07T09:30:11;162190.44;;;28.99;67.19
9690;BME280;4884;42.614;23.340;2022-08-07T09:33:05;162291.63;;;29.37;71.69
9690;BME280;4884;42.614;23.340;2022-08-07T09:36:11;162937.69;;;31.79;56.84
9690;BME280;4884;42.614;23.340;2022-08-07T09:39:06;162932.22;;;31.77;53.52
9690;BME280;4884;42.614;23.340;2022-08-07T09:41:45;162989.75;;;31.98;53.18
9690;BME280;4884;42.614;23.340;2022-08-07T09:47:14;162397.00;;;29.76;59.39
9690;BME280;4884;42.614;23.340;2022-08-07T09:49:56;162253.38;;;29.22;64.67
9690;BME280;4884;42.614;23.340;2022-08-07T09:52:39;162321.75;;;29.48;60.35
9690;BME280;4884;42.614;23.340;2022-08-07T09:58:12;161958.03;;;28.12;66.26
9690;BME280;4884;42.614;23.340;2022-08-07T10:06:48;162023.59;;;28.36;71.72
9690;BME280;4884;42.614;23.340;2022-08-07T10:09:51;162142.59;;;28.81;69.79
9690;BME280;4884;42.614;23.340;2022-08-07T10:23:45;162161.69;;;28.88;70.13
9690;BME280;4884;42.614;23.340;2022-08-07T10:29:24;162625.53;;;30.62;64.15
9690;BME280;4884;42.614;23.340;2022-08-07T10:40:21;162644.69;;;30.69;52.55
9690;BME280;4884;42.614;23.340;2022-08-07T10:45:34;162279.34;;;29.32;57.83
9690;BME280;4884;42.614;23.340;2022-08-07T10:50:41;162093.34;;;28.62;64.73
9690;BME280;4884;42.614;23.340;2022-08-07T10:55:44;162929.50;;;31.76;53.47
9690;BME280;4884;42.614;23.340;2022-08-07T11:01:28;162256.06;;;29.23;58.32
9690;BME280;4884;42.614;23.340;2022-08-07T11:06:44;162046.88;;;28.45;65.05
9690;BME280;4884;42.614;23.340;2022-08-07T11:09:16;161970.31;;;28.16;66.93
9690;BME280;4884;42.614;23.340;2022-08-07T11:12:03;161881.47;;;27.83;66.87
9690;BME280;4884;42.614;23.340;2022-08-07T11:14:42;161785.84;;;27.47;72.22
9690;BME280;4884;42.614;23.340;2022-08-07T11:17:16;161709.28;;;27.18;75.69
9690;BME280;4884;42.614;23.340;2022-08-07T11:20:00;161653.28;;;26.97;78.57
9690;BME280;4884;42.614;23.340;2022-08-07T11:25:17;161649.22;;;26.96;78.64
9690;BME280;4884;42.614;23.340;2022-08-07T11:30:58;162620.06;;;30.60;64.21
9690;BME280;4884;42.614;23.340;2022-08-07T11:33:41;162677.53;;;30.82;57.95
9690;BME280;4884;42.614;23.340;2022-08-07T11:36:24;162591.28;;;30.49;59.75
9690;BME280;4884;42.614;23.340;2022-08-07T11:39:08;162598.16;;;30.52;54.63
9690;BME280;4884;42.614;23.340;2022-08-07T11:45:07;162669.31;;;30.78;59.06
9690;BME280;4884;42.614;23.340;2022-08-07T11:47:47;163136.34;;;32.53;53.65
9690;BME280;4884;42.614;23.340;2022-08-07T11:50:21;163380.34;;;33.45;48.87
9690;BME280;4884;42.614;23.340;2022-08-07T11:58:15;162666.59;;;30.77;48.50
9690;BME280;4884;42.614;23.340;2022-08-07T12:03:45;162402.47;;;29.78;59.21
9690;BME280;4884;42.614;23.340;2022-08-07T12:06:40;162384.69;;;29.72;59.51
9690;BME280;4884;42.614;23.340;2022-08-07T12:09:24;162568.06;;;30.40;56.62
9690;BME280;4884;42.614;23.340;2022-08-07T12:14:31;162754.19;;;31.10;55.18
9690;BME280;4884;42.614;23.340;2022-08-07T12:17:09;162713.19;;;30.95;54.76
9690;BME280;4884;42.614;23.340;2022-08-07T12:19:44;162414.81;;;29.83;59.14
9690;BME280;4884;42.614;23.340;2022-08-07T12:22:26;162206.81;;;29.05;69.58
9690;BME280;4884;42.614;23.340;2022-08-07T12:28:33;162175.38;;;28.93;77.00
9690;BME280;4884;42.614;23.340;2022-08-07T12:31:07;162239.69;;;29.17;79.34
9690;BME280;4884;42.614;23.340;2022-08-07T12:33:36;162438.03;;;29.92;73.12
9690;BME280;4884;42.614;23.340;2022-08-07T12:36:02;162124.78;;;28.74;72.29
9690;BME280;4884;42.614;23.340;2022-08-07T12:38:29;162040.00;;;28.42;78.31
9690;BME280;4884;42.614;23.340;2022-08-07T12:40:58;162696.72;;;30.89;63.83
9690;BME280;4884;42.614;23.340;2022-08-07T12:43:29;162555.75;;;30.36;60.60
9690;BME280;4884;42.614;23.340;2022-08-07T12:46:20;162939.09;;;31.80;61.60
9690;BME280;4884;42.614;23.340;2022-08-07T12:51:23;163189.81;;;32.73;56.11
9690;BME280;4884;42.614;23.340;2022-08-07T12:53:56;163141.88;;;32.55;53.82
9690;BME280;4884;42.614;23.340;2022-08-07T12:56:24;163082.94;;;32.33;56.61
9690;BME280;4884;42.614;23.340;2022-08-07T12:58:51;162596.75;;;30.51;62.57
9690;BME280;4884;42.614;23.340;2022-08-07T13:07:05;162639.19;;;30.67;62.15
9690;BME280;4884;42.614;23.340;2022-08-07T13:09:51;163132.22;;;32.52;55.88
9690;BME280;4884;42.614;23.340;2022-08-07T13:12:52;163115.78;;;32.46;52.60
9690;BME280;4884;42.614;23.340;2022-08-07T13:15:23;163176.13;;;32.68;51.91
9690;BME280;4884;42.614;23.340;2022-08-07T13:18:20;163158.31;;;32.62;53.45
9690;BME280;4884;42.614;23.340;2022-08-07T13:20:55;163124.03;;;32.49;51.86
9690;BME280;4884;42.614;23.340;2022-08-07T13:26:10;163251.47;;;32.97;48.71
9690;BME280;4884;42.614;23.340;2022-08-07T13:28:45;163263.78;;;33.01;52.28
9690;BME280;4884;42.614;23.340;2022-08-07T13:31:20;163219.97;;;32.85;55.87
9690;BME280;4884;42.614;23.340;2022-08-07T13:34:02;162819.94;;;31.35;51.07
9690;BME280;4884;42.614;23.340;2022-08-07T13:36:40;162706.31;;;30.92;55.56
9690;BME280;4884;42.614;23.340;2022-08-07T13:41:43;162474.97;;;30.06;55.54
9690;BME280;4884;42.614;23.340;2022-08-07T13:44:17;162405.22;;;29.79;58.87
9690;BME280;4884;42.614;23.340;2022-08-07T13:46:45;162325.84;;;29.50;64.28
9690;BME280;4884;42.614;23.340;2022-08-07T13:49:16;162107.03;;;28.68;66.77
9690;BME280;4884;42.614;23.340;2022-08-07T13:51:44;161886.91;;;27.85;68.96
9690;BME280;4884;42.614;23.340;2022-08-07T13:54:12;161874.63;;;27.80;72.38
9690;BME280;4884;42.614;23.340;2022-08-07T13:56:39;161850.03;;;27.71;71.28
9690;BME280;4884;42.614;23.340;2022-08-07T13:59:32;161882.81;;;27.83;71.74
9690;BME280;4884;42.614;23.340;2022-08-07T14:02:00;161871.88;;;27.79;71.93
9690;BME280;4884;42.614;23.340;2022-08-07T14:07:10;161690.19;;;27.11;78.26
9690;BME280;4884;42.614;23.340;2022-08-07T14:09:38;161641.00;;;26.93;78.85
9690;BME280;4884;42.614;23.340;2022-08-07T14:12:06;161534.50;;;26.53;84.01
9690;BME280;4884;42.614;23.340;2022-08-07T14:14:40;161406.16;;;26.04;100.00
9690;BME280;4884;42.614;23.340;2022-08-07T14:17:08;161226.03;;;25.37;100.00
9690;BME280;4884;42.614;23.340;2022-08-07T14:19:36;161245.13;;;25.44;100.00
9690;BME280;4884;42.614;23.340;2022-08-07T14:22:04;161247.84;;;25.45;100.00
9690;BME280;4884;42.614;23.340;2022-08-07T14:24:41;161146.84;;;25.07;100.00
9690;BME280;4884;42.614;23.340;2022-08-07T14:27:12;161170.03;;;25.16;100.00
9690;BME280;4884;42.614;23.340;2022-08-07T14:29:46;161250.59;;;25.46;100.00
9690;BME280;4884;42.614;23.340;2022-08-07T14:32:15;161165.94;;;25.14;100.00
9690;BME280;4884;42.614;23.340;2022-08-07T14:34:44;161189.19;;;25.23;100.00
9690;BME280;4884;42.614;23.340;2022-08-07T14:37:12;161251.94;;;25.46;100.00
9690;BME280;4884;42.614;23.340;2022-08-07T14:39:40;161310.59;;;25.68;100.00
9690;BME280;4884;42.614;23.340;2022-08-07T14:42:09;161264.19;;;25.51;95.64
9690;BME280;4884;42.614;23.340;2022-08-07T14:44:44;161544.06;;;26.56;89.56
9690;BME280;4884;42.614;23.340;2022-08-07T14:47:12;161586.41;;;26.72;87.80
9690;BME280;4884;42.614;23.340;2022-08-07T14:49:41;161971.66;;;28.17;83.15
9690;BME280;4884;42.614;23.340;2022-08-07T14:52:07;161930.69;;;28.01;71.69
9690;BME280;4884;42.614;23.340;2022-08-07T14:54:35;162112.50;;;28.70;66.07
9690;BME280;4884;42.614;23.340;2022-08-07T14:57:04;162332.69;;;29.52;68.48
9690;BME280;4884;42.614;23.340;2022-08-07T14:59:33;162462.66;;;30.01;61.42
9690;BME280;4884;42.614;23.340;2022-08-07T15:04:39;162197.25;;;29.01;57.92
9690;BME280;4884;42.614;23.340;2022-08-07T15:07:08;162294.41;;;29.38;58.41
9690;BME280;4884;42.614;23.340;2022-08-07T15:09:38;162462.66;;;30.01;62.17
9690;BME280;4884;42.614;23.340;2022-08-07T15:12:08;162375.06;;;29.68;62.76
9690;BME280;4884;42.614;23.340;2022-08-07T15:14:34;162399.75;;;29.77;62.62
9690;BME280;4884;42.614;23.340;2022-08-07T15:17:15;162295.75;;;29.38;60.42